Impacts TAF Board INFO
FOR SITUATIONAL AWARENESS. NOT TO BE USED FOR FLIGHT PLANNING PURPOSES.
IDs:

KLGA - New York/La Guardia, NY, US

Issued at 0804 UTC 22 Jul 2018
Updated at 0819 UTC 22 Jul 2018
Potential Impact None Slight Moderate High
Time0751Z 22/09Z 22/10Z 22/11Z 22/12Z 22/13Z 22/14Z 22/15Z 22/16Z 22/17Z 22/18Z 22/19Z 22/20Z 22/21Z>>
Type OBS PRVL PRVL PRVL PRVL PRVL PRVL PRVL PRVL PRVL PRVL PRVL PRVL PRVL
VIS 7 6 >6 >6 >6 >6 >6 >6 >6 >6 >6 >6 >6 >6
CIG 14 12 12 12 12 12 12 20 20 20 20 20 20 20
Cover OVC OVC OVC OVC OVC OVC OVC OVC OVC OVC OVC OVC OVC OVC
FltCat MVFR MVFR MVFR MVFR MVFR MVFR MVFR MVFR MVFR MVFR MVFR MVFR MVFR MVFR
WX -RA -SHRA BR VCSH VCSH VCSH VCSH VCSH VCSH VCSH VCSH VCSH VCSH VCSH VCSH
WDir 130 90 140 140 140 140 140 140 140 140 140 140 140 140
WSpd 24 23 15 15 15 15 15 12 12 12 12 12 12 12
WGst 30 35 26 26 26 26 26 20 20 20 20 20 20 20

Raw TAF
KLGA 220804Z 2208/2312 09023G35KT 6SM -SHRA BR SCT006 OVC012 WS020/13050KT
  FM221000 14015G26KT P6SM VCSH OVC012
  FM221500 14012G20KT P6SM VCSH BKN020 OVC040
  FM230100 15011G18KT P6SM VCSH OVC020
  FM230400 16011KT 3SM SHRA OVC028


Raw METAR
KLGA 220751Z 13024G30KT 7SM -RA FEW009 BKN014 OVC022 24/22 A2979 RMK AO2 PK WND 09036/0652 SLP087 P0002 T02440217 $
KLGA 220651Z 09022G33KT 6SM -RA BR FEW008 BKN012 OVC024 23/21 A2979 RMK AO2 PK WND 09035/0638 SLP086 P0012 T02330211 $
KLGA 220629Z 09024G32KT 8SM -RA FEW008 BKN012 OVC045 23/21 A2979 RMK AO2 PK WND 09032/0620 P0004 T02330211 $
KLGA 220551Z 10020G26KT 6SM -RA BR BKN008 BKN014 OVC020 23/21 A2983 RMK AO2 PK WND 11029/0538 SLP101 P0012 60051 T02330211 10233 20194 58028 $

METAR Board
Radar Display
Forecast Discussion

FOR SITUATIONAL AWARENESS. NOT TO BE USED FOR FLIGHT PLANNING PURPOSES.